Central Oregon RPC :: GERLACH, NV A

liberation: 2020-06-14  06:00     latitude: 40.654500     longitude: -119.350399 49 birds
# LOFT PRING MILES ARRIVAL SPEED ToWin
1 STEELE LOFT AU19-CORP-4008 270.901 2020-06-14 11:39:03.284 1406.223 00:00:00
2 STEELE LOFT AU19-CORP-4024 270.901 2020-06-14 11:39:04.841 1406.115 00:00:02
3 STEELE LOFT AU19-CORP-4039 270.901 2020-06-14 11:45:36.929 1379.529 00:06:34
4 HENDRICKSON FAMILY LOFT AU19-ARPU-29030 265.421 2020-06-14 11:40:27.048 1372.127 00:08:15
5 HENDRICKSON FAMILY LOFT AU19-CORP-4385 265.421 2020-06-14 11:40:30.829 1371.873 00:08:19
6 HENDRICKSON FAMILY LOFT AU19-ARPU-29019 265.421 2020-06-14 11:41:22.381 1368.420 00:09:11
7 HENDRICKSON FAMILY LOFT AU19-CORP-4359 265.421 2020-06-14 11:52:32.184 1325.088 00:20:20
8 TOPIGEONUSA AU19-CORP-5140 270.516 2020-06-14 12:03:47.938 1308.711 00:25:14
9 HENDRICKSON FAMILY LOFT AU19-CORP-4354 265.421 2020-06-14 11:58:15.784 1303.907 00:26:04
10 AMERICAN LOFT AU19-CORP-4746 265.35 2020-06-14 11:58:17.388 1303.457 00:26:11
11 AMERICAN LOFT AU19-CORP-4699 265.35 2020-06-14 11:58:17.772 1303.434 00:26:11
12 HENDRICKSON FAMILY LOFT AU18-CORP-4028 265.421 2020-06-14 11:58:27.268 1303.210 00:26:16
13 AMERICAN LOFT AU19-CORP-4650 265.35 2020-06-14 12:14:15.025 1247.869 00:42:09
14 TIM GRAVES AU17-FHI-1014 260.999 2020-06-14 12:09:03.220 1244.694 00:42:24
15 TIM GRAVES AU15-AA-14507 260.999 2020-06-14 12:09:08.314 1244.407 00:42:29
16 STEELE LOFT AU19-CORP-4022 270.901 2020-06-14 12:27:41.528 1229.807 00:48:38
17 ROCKY TOP AU18-CORP-3335 262.946 2020-06-14 12:36:54.765 1165.962 01:07:49
18 ROCKY TOP AU18-CORP-3350 262.946 2020-06-14 12:36:55.445 1165.929 01:07:50
19 ROCKY TOP AU19-ARPU-29022 262.946 2020-06-14 12:36:58.949 1165.757 01:07:53
20 TIM GRAVES AU14-TAR-0426 260.999 2020-06-14 12:53:43.464 1110.301 01:27:04
21 ROCKY TOP AU19-CORP-4482 262.946 2020-06-14 12:57:14.357 1109.160 01:28:08
22 TIM GRAVES AU17-SWWR-7335 260.999 2020-06-14 12:56:42.104 1102.368 01:30:02
23 ROCKY TOP AU18-CORP-3362 262.946 2020-06-14 13:02:22.835 1095.659 01:33:17
24 ROCKY TOP AU19-JEDD-0504 262.946 2020-06-14 13:08:46.467 1079.321 01:39:41
25 ROCKY TOP AU18-CORP-3337 262.946 2020-06-14 13:08:47.167 1079.292 01:39:41
26 ROCKY TOP AU19-CORP-4420 262.946 2020-06-14 13:08:59.821 1078.761 01:39:54
27 STEELE LOFT AU19-CORP-4045 270.901 2020-06-14 13:22:18.649 1077.944 01:43:15
28 STEELE LOFT AU19-CORP-4007 270.901 2020-06-14 13:22:21.477 1077.830 01:43:18
29 STEELE LOFT AU19-CORP-4006 270.901 2020-06-14 13:22:26.575 1077.623 01:43:23
30 ROCKY TOP AU18-CORP-3334 262.946 2020-06-14 13:16:52.011 1059.328 01:47:46
31 STEELE LOFT AU19-JEDD-1973 270.901 2020-06-14 13:30:52.668 1057.463 01:51:49
32 STEELE LOFT AU19-CORP-4009 270.901 2020-06-14 13:31:16.628 1056.527 01:52:13
33 STEELE LOFT AU16-MTH-11012 270.901 2020-06-14 13:49:52.332 1014.715 02:10:49
34 ROCKY TOP AU19-ARPU-29027 262.946 2020-06-14 13:41:08.793 1003.553 02:12:03
35 HENDRICKSON FAMILY LOFT AU19-CORP-4372 265.421 2020-06-14 13:47:27.659 999.317 02:15:16
36 TIM GRAVES AU15-AA-14510 260.999 2020-06-14 14:07:25.379 942.423 02:40:46
37 TIM GRAVES AU15-CORP-3070 260.999 2020-06-14 14:37:44.076 887.248 03:11:04
38 AMERICAN LOFT AU19-CORP-4681 265.35 2020-06-14 15:13:30.002 843.750 03:41:24
39 TIM GRAVES AU15-CORP-3096 260.999 2020-06-14 15:18:02.379 823.165 03:51:23
40 HENDRICKSON FAMILY LOFT AU18-CORP-4007 265.421 2020-06-14 15:58:44.308 780.210 04:26:33
41 ROCKY TOP AU19-CORP-4421 262.946 2020-06-14 17:25:16.343 675.330 05:56:10
42 TIM GRAVES AU19-CORP-4220 260.999 2020-06-14 18:41:39.185 603.108 07:14:59
43 ROCKY TOP AU18-CORP-3386 262.946 2020-06-15 11:42:29.923 354.164 16:17:36
44 STEELE LOFT AU18-CORP-4093 270.901 2020-06-18 08:45:15.164 105.983 69:19:39
RUETER FAMILY LOFT AU19-CORP-5289 0 0000-00-00 00:00:00.000 0.000 00:00:00
TIM GRAVES AU14-CORP-0072 0 0000-00-00 00:00:00.000 0.000 00:00:00
TIM GRAVES AU17-CORP-0834 0 0000-00-00 00:00:00.000 0.000 00:00:00
TIM GRAVES AU19-CORP-4203 0 0000-00-00 00:00:00.000 0.000 00:00:00
TIM GRAVES AU19-CORP-4232 0 0000-00-00 00:00:00.000 0.000 00:00:00